Time;durP1;ratioP1;P1;durP2;ratioP2;P2;SDS_P1;SDS_P2;PMS_P1;PMS_P2;Temp;Humidity;BMP_temperature;BMP_pressure;BME280_temperature;BME280_humidity;BME280_pressure;Samples;Min_cycle;Max_cycle;Signal;HPM_P1;HPM_P2
2022/05/20 00:02:07;;;;;;;29.67;22.85;;;15.20;99.90;;;;;;7354509;32;20107;-60
2022/05/20 00:06:09;;;;;;;31.15;21.55;;;15.10;99.90;;;;;;7361766;32;20107;-61
2022/05/20 00:10:12;;;;;;;27.25;22.08;;;15.00;99.90;;;;;;7349571;32;20502;-61
2022/05/20 00:14:14;;;;;;;36.47;22.98;;;15.00;99.90;;;;;;7362649;32;20107;-60
2022/05/20 00:18:16;;;;;;;31.50;23.23;;;14.90;99.90;;;;;;7365878;32;20157;-60
2022/05/20 00:22:18;;;;;;;31.92;23.40;;;14.80;99.90;;;;;;7352395;32;20600;-60
2022/05/20 00:26:20;;;;;;;30.77;24.48;;;14.70;99.90;;;;;;7349448;32;20153;-62
2022/05/20 00:30:21;;;;;;;31.35;25.75;;;14.60;99.90;;;;;;7350290;32;20099;-60
2022/05/20 00:34:23;;;;;;;34.55;27.62;;;14.70;99.90;;;;;;7362304;32;20186;-61
2022/05/20 00:38:26;;;;;;;35.45;27.55;;;14.70;99.90;;;;;;7356436;32;20138;-60
2022/05/20 00:42:28;;;;;;;32.53;26.05;;;14.60;99.90;;;;;;7357182;32;20232;-60
2022/05/20 00:46:29;;;;;;;39.10;28.00;;;14.60;99.90;;;;;;7361432;32;20229;-61
2022/05/20 00:50:32;;;;;;;33.03;24.63;;;14.50;99.90;;;;;;7369638;32;20519;-61
2022/05/20 00:54:40;;;;;;;32.35;23.95;;;14.40;99.90;;;;;;7370498;32;20107;-61
2022/05/20 00:58:43;;;;;;;35.30;24.85;;;14.40;99.90;;;;;;7365775;32;20555;-61
2022/05/20 01:02:46;;;;;;;27.40;22.95;;;14.40;99.90;;;;;;7361243;32;20129;-62
2022/05/20 01:06:48;;;;;;;33.13;22.67;;;14.30;99.90;;;;;;7364564;32;20125;-61
2022/05/20 01:10:50;;;;;;;31.25;21.87;;;14.40;99.90;;;;;;7352765;32;20472;-62
2022/05/20 01:14:52;;;;;;;32.55;23.60;;;14.40;99.90;;;;;;7363047;32;20122;-62
2022/05/20 01:18:56;;;;;;;31.08;22.90;;;14.40;99.90;;;;;;7360147;32;20138;-62
2022/05/20 01:23:07;;;;;;;31.70;24.02;;;14.40;99.90;;;;;;7359734;32;20103;-61
2022/05/20 01:27:09;;;;;;;36.58;26.98;;;14.50;99.90;;;;;;7362608;32;20140;-61
2022/05/20 01:31:13;;;;;;;34.30;26.25;;;14.50;99.90;;;;;;7373545;32;20890;-61
2022/05/20 01:35:46;;;;;;;39.15;27.40;;;14.60;99.90;;;;;;7364981;32;20795;-61
2022/05/20 01:39:48;;;;;;;37.60;26.83;;;14.60;99.90;;;;;;7350773;32;20748;-61
2022/05/20 01:43:57;;;;;;;37.28;28.15;;;14.50;99.90;;;;;;7355739;32;20091;-62
2022/05/20 01:48:18;;;;;;;39.35;27.08;;;14.50;99.90;;;;;;7350548;32;20100;-62
2022/05/20 01:52:30;;;;;;;40.42;26.37;;;14.60;99.90;;;;;;7370085;32;20432;-61
2022/05/20 01:56:38;;;;;;;40.65;28.15;;;14.60;99.90;;;;;;7370078;32;20106;-62
2022/05/20 02:00:40;;;;;;;33.10;26.37;;;14.50;99.90;;;;;;7366420;32;20574;-62
2022/05/20 02:04:46;;;;;;;36.60;27.23;;;14.50;99.90;;;;;;7357920;32;20137;-61
2022/05/20 02:09:02;;;;;;;40.03;25.85;;;14.40;99.90;;;;;;7372206;32;20107;-60
2022/05/20 02:13:08;;;;;;;35.97;26.50;;;14.40;99.90;;;;;;7369712;32;20600;-60
2022/05/20 02:17:26;;;;;;;38.88;26.45;;;14.40;99.90;;;;;;7365529;32;20102;-61
2022/05/20 02:21:32;;;;;;;33.42;24.98;;;14.30;99.90;;;;;;7369810;32;20111;-60
2022/05/20 02:25:38;;;;;;;30.15;23.12;;;14.20;99.90;;;;;;7364499;32;20684;-60
2022/05/20 02:29:52;;;;;;;35.13;25.20;;;14.10;99.90;;;;;;7363759;32;20161;-61
2022/05/20 02:33:54;;;;;;;33.25;25.37;;;14.00;99.90;;;;;;7358019;32;20190;-61
2022/05/20 02:38:07;;;;;;;33.17;25.33;;;13.90;99.90;;;;;;7361238;32;20186;-60
2022/05/20 02:42:09;;;;;;;33.17;24.35;;;13.90;99.90;;;;;;7353748;32;20111;-60
2022/05/20 02:46:12;;;;;;;34.47;25.62;;;13.80;99.90;;;;;;7371328;32;20103;-61
2022/05/20 02:50:14;;;;;;;30.60;24.83;;;13.70;99.90;;;;;;7358151;32;20273;-60
2022/05/20 02:54:15;;;;;;;30.05;24.45;;;13.70;99.90;;;;;;7373862;32;20103;-61
2022/05/20 03:06:58;;;;;;;29.98;23.62;;;13.40;99.90;;;;;;7354143;32;20521;-60
2022/05/20 03:11:00;;;;;;;38.03;25.85;;;13.40;99.90;;;;;;7363656;32;20508;-61
2022/05/20 03:15:07;;;;;;;31.83;24.80;;;13.30;99.90;;;;;;7365481;32;20195;-60
2022/05/20 03:19:09;;;;;;;33.25;26.87;;;13.30;99.90;;;;;;7365085;32;20175;-60
2022/05/20 03:23:11;;;;;;;35.60;27.62;;;13.30;99.90;;;;;;7360200;32;20520;-60
2022/05/20 03:27:12;;;;;;;38.65;27.52;;;13.30;99.90;;;;;;7357391;32;20428;-60
2022/05/20 03:31:14;;;;;;;36.05;25.65;;;13.30;99.90;;;;;;7362671;32;20220;-60
2022/05/20 03:35:16;;;;;;;36.38;24.17;;;13.40;99.90;;;;;;7343014;32;20217;-60
2022/05/20 03:39:20;;;;;;;37.53;26.17;;;13.40;99.90;;;;;;7342479;32;20111;-60
2022/05/20 03:43:23;;;;;;;36.33;26.75;;;13.50;99.90;;;;;;7360917;32;20399;-60
2022/05/20 03:47:24;;;;;;;46.37;29.27;;;13.40;99.90;;;;;;7357944;32;20218;-62
2022/05/20 03:51:26;;;;;;;36.63;26.92;;;13.40;99.90;;;;;;7357057;32;20125;-61
2022/05/20 03:55:29;;;;;;;37.38;28.23;;;13.50;99.90;;;;;;7364631;32;20263;-61
2022/05/20 03:59:33;;;;;;;40.90;27.62;;;13.40;99.90;;;;;;7369174;32;20124;-62
2022/05/20 04:03:40;;;;;;;37.78;27.02;;;13.50;99.90;;;;;;7358902;32;20305;-61
2022/05/20 04:07:41;;;;;;;35.50;26.77;;;13.50;99.90;;;;;;7361368;32;20234;-61
2022/05/20 04:11:43;;;;;;;41.47;28.45;;;13.60;99.90;;;;;;7355269;32;20529;-61
2022/05/20 04:15:46;;;;;;;36.20;27.62;;;13.60;99.90;;;;;;7337835;32;20197;-61
2022/05/20 04:19:48;;;;;;;37.30;27.23;;;13.60;99.90;;;;;;7359667;32;20118;-61
2022/05/20 04:23:50;;;;;;;37.22;26.65;;;13.60;99.90;;;;;;7360096;32;20107;-61
2022/05/20 04:27:51;;;;;;;38.28;28.50;;;13.60;99.90;;;;;;7369662;32;20436;-61
2022/05/20 04:31:53;;;;;;;38.15;28.50;;;13.70;99.90;;;;;;7365997;32;20137;-62
2022/05/20 04:35:55;;;;;;;40.72;28.45;;;13.70;99.90;;;;;;7366481;32;20860;-61
2022/05/20 04:39:56;;;;;;;38.95;28.30;;;13.60;99.90;;;;;;7357850;32;20804;-61
2022/05/20 04:48:18;;;;;;;48.53;32.63;;;13.80;99.90;;;;;;7351503;32;20150;-66
2022/05/20 04:52:20;;;;;;;49.58;32.90;;;13.90;99.90;;;;;;7357938;32;20216;-66
2022/05/20 04:56:22;;;;;;;46.47;31.55;;;14.00;99.90;;;;;;7350042;32;20186;-66
2022/05/20 05:00:29;;;;;;;48.05;31.20;;;14.00;99.90;;;;;;7364125;32;20609;-66
2022/05/20 05:04:31;;;;;;;47.50;36.10;;;14.10;99.90;;;;;;7356163;32;20136;-66
2022/05/20 05:08:33;;;;;;;47.30;33.95;;;14.20;99.90;;;;;;7367491;32;20209;-64
2022/05/20 05:12:35;;;;;;;50.90;35.88;;;14.20;99.90;;;;;;7360978;32;20223;-65
2022/05/20 05:16:38;;;;;;;56.42;40.67;;;14.30;99.90;;;;;;7363844;32;20124;-65
2022/05/20 05:20:51;;;;;;;51.33;38.83;;;14.40;99.90;;;;;;7362083;32;20099;-66
2022/05/20 05:24:52;;;;;;;59.40;40.47;;;14.50;99.90;;;;;;7361115;32;20440;-65
2022/05/20 05:28:55;;;;;;;49.33;37.75;;;14.60;99.90;;;;;;7367791;32;20117;-65
2022/05/20 05:32:57;;;;;;;53.10;38.00;;;14.80;99.90;;;;;;7368018;32;20134;-65
2022/05/20 05:36:58;;;;;;;47.25;36.58;;;14.80;99.90;;;;;;7371300;32;20720;-65
2022/05/20 05:41:00;;;;;;;48.90;35.17;;;14.80;99.90;;;;;;7367553;32;20216;-64
2022/05/20 05:45:05;;;;;;;41.78;32.45;;;15.00;99.90;;;;;;7364274;32;20214;-64
2022/05/20 05:49:07;;;;;;;39.67;30.45;;;15.10;99.90;;;;;;7357287;32;20129;-64
2022/05/20 05:53:16;;;;;;;39.95;28.38;;;15.20;99.90;;;;;;7358428;32;20107;-64
2022/05/20 05:57:18;;;;;;;35.70;28.45;;;15.40;99.90;;;;;;7366034;32;20133;-64
2022/05/20 06:01:19;;;;;;;30.80;24.30;;;15.50;99.90;;;;;;7368214;32;20127;-65
2022/05/20 06:05:22;;;;;;;29.92;23.00;;;15.40;99.90;;;;;;7362788;32;20110;-64
2022/05/20 06:09:24;;;;;;;26.33;20.30;;;15.50;99.90;;;;;;7344996;32;20158;-65
2022/05/20 06:13:28;;;;;;;22.80;17.58;;;15.70;99.90;;;;;;7361606;32;20249;-64
2022/05/20 06:17:31;;;;;;;19.75;15.00;;;16.40;99.90;;;;;;7362425;32;20141;-64
2022/05/20 06:21:33;;;;;;;19.12;14.52;;;17.00;99.90;;;;;;7370854;32;20138;-64
2022/05/20 06:25:35;;;;;;;17.08;12.23;;;17.10;99.90;;;;;;7349055;32;20625;-64
2022/05/20 06:29:38;;;;;;;16.55;11.00;;;17.80;99.90;;;;;;7350697;32;20103;-63
2022/05/20 06:33:40;;;;;;;10.80;9.55;;;18.80;99.90;;;;;;7362210;32;20115;-64
2022/05/20 06:42:09;;;;;;;12.70;9.00;;;20.70;99.90;;;;;;7361069;32;20175;-64
2022/05/20 06:46:11;;;;;;;12.85;9.73;;;20.70;99.90;;;;;;7369105;32;20121;-63
2022/05/20 06:50:28;;;;;;;10.75;8.23;;;20.50;99.90;;;;;;7367477;32;20114;-64
2022/05/20 06:54:30;;;;;;;12.20;8.13;;;21.20;99.90;;;;;;7356800;32;20158;-64
2022/05/20 06:58:32;;;;;;;14.20;11.35;;;21.00;99.90;;;;;;7336076;32;20233;-65
2022/05/20 07:02:33;;;;;;;19.70;12.18;;;20.60;99.90;;;;;;7359690;32;20110;-65
2022/05/20 07:06:36;;;;;;;15.30;10.63;;;20.20;99.90;;;;;;7361472;32;20103;-65
2022/05/20 07:10:39;;;;;;;16.15;11.63;;;19.90;99.90;;;;;;7363101;32;20236;-65
2022/05/20 07:15:01;;;;;;;15.80;12.63;;;19.70;99.90;;;;;;7361686;32;20096;-65
2022/05/20 07:19:08;;;;;;;21.83;15.18;;;19.30;99.90;;;;;;7360404;32;20502;-64
2022/05/20 07:23:09;;;;;;;22.00;14.65;;;19.20;99.90;;;;;;7345375;32;20158;-66
2022/05/20 07:27:12;;;;;;;22.40;15.93;;;19.20;99.90;;;;;;7354701;32;20103;-65
2022/05/20 07:31:15;;;;;;;21.35;15.55;;;19.10;99.90;;;;;;7361766;32;20128;-66
2022/05/20 07:35:17;;;;;;;23.70;15.70;;;18.90;99.90;;;;;;7363826;32;20222;-65
2022/05/20 07:39:18;;;;;;;22.15;16.90;;;18.90;99.90;;;;;;7348627;32;20095;-64
2022/05/20 07:43:22;;;;;;;25.20;18.45;;;18.80;99.90;;;;;;7352049;32;20100;-64
2022/05/20 07:47:26;;;;;;;32.65;21.85;;;18.90;99.90;;;;;;7361357;32;20120;-65
2022/05/20 07:51:37;;;;;;;30.10;22.62;;;18.90;99.90;;;;;;7363126;32;20119;-64
2022/05/20 07:55:41;;;;;;;27.40;19.55;;;19.00;99.90;;;;;;7359316;32;20738;-65
2022/05/20 07:59:46;;;;;;;29.17;21.55;;;19.10;99.90;;;;;;7361641;32;20134;-66
2022/05/20 08:08:14;;;;;;;27.62;19.50;;;19.60;99.90;;;;;;7359038;32;20103;-67
2022/05/20 08:12:16;;;;;;;32.17;23.65;;;20.00;99.90;;;;;;7362103;32;20129;-65
2022/05/20 08:16:21;;;;;;;29.00;19.80;;;20.10;99.90;;;;;;7354635;32;20111;-64
2022/05/20 08:20:27;;;;;;;33.20;24.25;;;20.50;99.90;;;;;;7329932;32;20129;-65
2022/05/20 08:24:30;;;;;;;35.70;22.73;;;20.80;99.90;;;;;;7356180;32;20211;-65
2022/05/20 08:28:32;;;;;;;29.25;20.98;;;21.00;99.90;;;;;;7361281;32;20221;-64
2022/05/20 08:32:34;;;;;;;38.42;25.37;;;21.00;99.90;;;;;;7358225;32;20114;-65
2022/05/20 08:36:38;;;;;;;38.97;23.23;;;20.80;99.90;;;;;;7346763;32;20709;-65
2022/05/20 08:40:49;;;;;;;27.80;20.08;;;20.80;99.90;;;;;;7343230;32;20092;-66
2022/05/20 08:44:51;;;;;;;31.25;21.10;;;20.70;99.90;;;;;;7355855;32;20122;-65
2022/05/20 08:48:55;;;;;;;32.47;20.70;;;20.80;99.90;;;;;;7342874;32;20103;-64
2022/05/20 08:52:57;;;;;;;32.83;23.17;;;21.00;99.90;;;;;;7354122;32;20092;-65
2022/05/20 08:57:20;;;;;;;32.67;23.08;;;20.80;99.90;;;;;;7358830;32;20130;-65
2022/05/20 09:01:37;;;;;;;29.77;20.50;;;20.60;99.90;;;;;;7355003;32;20134;-65
2022/05/20 09:05:41;;;;;;;33.50;22.67;;;20.70;99.90;;;;;;7345040;32;20186;-65
2022/05/20 09:09:42;;;;;;;32.50;22.67;;;20.90;99.90;;;;;;7360480;32;20166;-65
2022/05/20 09:18:08;;;;;;;24.75;19.25;;;21.50;99.90;;;;;;7348205;32;20103;-66
2022/05/20 09:22:14;;;;;;;34.00;23.10;;;21.80;99.90;;;;;;7355639;32;20451;-65
2022/05/20 09:26:23;;;;;;;34.45;24.92;;;21.60;99.90;;;;;;7346627;32;20115;-65
2022/05/20 09:30:37;;;;;;;29.10;21.00;;;21.40;99.90;;;;;;7359815;32;20107;-65
2022/05/20 09:35:12;;;;;;;35.45;23.75;;;21.40;99.90;;;;;;7342692;32;20233;-64
2022/05/20 09:39:25;;;;;;;29.23;20.70;;;21.00;99.90;;;;;;7347144;32;20186;-64
2022/05/20 09:43:35;;;;;;;32.42;20.70;;;21.50;99.90;;;;;;7356403;32;20103;-65
2022/05/20 09:47:50;;;;;;;32.08;22.23;;;21.90;99.90;;;;;;7348372;32;20110;-65
2022/05/20 09:51:55;;;;;;;28.45;18.55;;;21.80;99.90;;;;;;7349417;32;20095;-65
2022/05/20 09:56:23;;;;;;;27.23;19.23;;;22.60;99.90;;;;;;7354866;32;20257;-65
2022/05/20 10:00:32;;;;;;;27.20;19.75;;;23.30;99.90;;;;;;7359480;32;20171;-65
2022/05/20 10:04:44;;;;;;;27.10;18.27;;;23.30;99.90;;;;;;7347244;32;20564;-65
2022/05/20 10:08:52;;;;;;;27.83;18.90;;;23.20;99.90;;;;;;7363935;32;20198;-65
2022/05/20 10:12:55;;;;;;;25.23;17.58;;;23.50;99.90;;;;;;7359740;32;20766;-66
2022/05/20 10:17:13;;;;;;;26.80;19.77;;;23.50;99.90;;;;;;7356699;32;20107;-65
2022/05/20 10:21:37;;;;;;;24.08;18.10;;;23.30;99.90;;;;;;7357893;32;20126;-65
2022/05/20 10:25:50;;;;;;;29.80;20.67;;;23.40;99.90;;;;;;7364249;32;20121;-65
2022/05/20 10:34:33;;;;;;;25.83;20.45;;;23.80;99.90;;;;;;7345649;32;20265;-64
2022/05/20 10:38:40;;;;;;;24.23;17.45;;;24.00;99.90;;;;;;7350056;32;20150;-66
2022/05/20 10:42:57;;;;;;;24.30;19.98;;;24.40;99.90;;;;;;7356696;32;20129;-65
2022/05/20 10:51:45;;;;;;;23.83;18.23;;;24.50;99.90;;;;;;7359237;32;20260;-65
2022/05/20 10:56:23;;;;;;;20.25;14.77;;;24.50;99.90;;;;;;7363741;32;20241;-65
2022/05/20 11:00:39;;;;;;;23.80;19.48;;;24.90;99.90;;;;;;7287357;32;20174;-66
2022/05/20 11:05:03;;;;;;;22.73;17.73;;;25.00;99.90;;;;;;7350269;32;20181;-65
2022/05/20 11:09:39;;;;;;;17.50;13.07;;;24.70;99.90;;;;;;7353106;32;20114;-65
2022/05/20 11:14:03;;;;;;;18.87;16.00;;;24.80;99.90;;;;;;7330407;32;20135;-66
2022/05/20 11:18:28;;;;;;;12.50;11.18;;;25.00;99.90;;;;;;7360475;32;20883;-66
2022/05/20 11:23:07;;;;;;;12.60;9.95;;;25.30;99.90;;;;;;7354731;32;20111;-64
2022/05/20 11:27:37;;;;;;;14.82;10.43;;;25.30;99.90;;;;;;7344700;32;20650;-65
2022/05/20 11:31:51;;;;;;;12.40;9.05;;;25.80;99.90;;;;;;7352552;32;20217;-66
2022/05/20 11:36:20;;;;;;;10.20;8.15;;;26.10;99.90;;;;;;7357800;32;20301;-56
2022/05/20 11:40:59;;;;;;;11.68;7.97;;;26.20;99.90;;;;;;7346456;32;20176;-65
2022/05/20 11:45:32;;;;;;;9.88;7.80;;;26.40;99.90;;;;;;7362208;32;20558;-65
2022/05/20 11:49:58;;;;;;;10.73;7.62;;;26.50;99.90;;;;;;7344317;32;20606;-65
2022/05/20 11:54:23;;;;;;;7.70;6.93;;;26.30;99.90;;;;;;7353547;32;20226;-62
2022/05/20 11:58:33;;;;;;;8.13;6.55;;;25.90;99.90;;;;;;7337955;32;20143;-65
2022/05/20 12:02:45;;;;;;;9.60;5.68;;;26.20;99.90;;;;;;7345209;32;20660;-62
2022/05/20 12:06:54;;;;;;;5.12;4.47;;;26.40;99.90;;;;;;7355848;32;20691;-65
2022/05/20 12:10:56;;;;;;;5.75;4.45;;;26.60;99.90;;;;;;7340560;32;20224;-64
2022/05/20 12:15:29;;;;;;;4.60;4.10;;;26.50;99.90;;;;;;7359370;32;20265;-63
2022/05/20 12:24:22;;;;;;;4.20;3.22;;;25.60;99.90;;;;;;7342501;32;20194;-64
2022/05/20 12:28:24;;;;;;;7.20;3.72;;;25.40;99.90;;;;;;7355415;32;20111;-62
2022/05/20 12:32:41;;;;;;;7.43;3.78;;;24.90;99.90;;;;;;7339804;32;20133;-62
2022/05/20 12:36:43;;;;;;;;;;;24.70;99.90;;;;;;7355404;32;20266;-61
2022/05/20 12:40:49;;;;;;;7.55;3.85;;;24.50;99.90;;;;;;7351161;32;20006;-61
2022/05/20 12:44:52;;;;;;;8.70;4.30;;;24.20;99.90;;;;;;7357124;32;20130;-62
2022/05/20 12:48:55;;;;;;;12.90;4.25;;;23.90;99.90;;;;;;7339498;32;20540;-65
2022/05/20 12:53:03;;;;;;;5.97;4.82;;;23.50;99.90;;;;;;7357235;32;20193;-66
2022/05/20 12:57:08;;;;;;;5.80;5.03;;;23.40;99.90;;;;;;7358123;32;20115;-65
2022/05/20 13:01:14;;;;;;;6.10;5.40;;;23.20;99.90;;;;;;7353853;32;20111;-67
2022/05/20 13:05:30;;;;;;;7.37;5.35;;;22.90;99.90;;;;;;7342204;32;20107;-66
2022/05/20 13:09:40;;;;;;;7.15;5.72;;;22.60;99.90;;;;;;7363286;32;20225;-66
2022/05/20 13:13:43;;;;;;;9.27;6.68;;;22.30;99.90;;;;;;7354538;32;20508;-66
2022/05/20 13:18:09;;;;;;;12.05;7.45;;;22.00;99.90;;;;;;7347927;32;21666;-65
2022/05/20 13:22:13;;;;;;;23.27;9.23;;;21.80;99.90;;;;;;7351216;32;20107;-64
2022/05/20 13:26:23;;;;;;;7.95;3.50;;;21.60;99.90;;;;;;7358325;32;20111;-63
2022/05/20 13:30:31;;;;;;;14.77;3.53;;;20.80;99.90;;;;;;7336037;32;20134;-63
2022/05/20 13:34:32;;;;;;;10.07;2.72;;;19.90;99.90;;;;;;7356829;32;20248;-63
2022/05/20 13:38:41;;;;;;;10.55;2.75;;;19.30;99.90;;;;;;7359957;32;20709;-63
2022/05/20 13:42:52;;;;;;;4.32;2.60;;;18.90;99.90;;;;;;7361035;32;20152;-63
2022/05/20 13:51:27;;;;;;;7.53;1.60;;;18.80;99.90;;;;;;7357558;32;20223;-64
2022/05/20 13:55:33;;;;;;;3.95;1.85;;;19.10;99.90;;;;;;7360666;32;20107;-64
2022/05/20 13:59:36;;;;;;;5.45;1.98;;;19.30;99.90;;;;;;7362499;32;20478;-59
2022/05/20 14:03:43;;;;;;;6.10;1.95;;;19.50;99.90;;;;;;7358139;32;20228;-59
2022/05/20 14:07:49;;;;;;;3.08;1.75;;;19.60;99.90;;;;;;7353928;32;20982;-59
2022/05/20 14:11:53;;;;;;;3.13;1.80;;;19.70;99.90;;;;;;7343829;32;20122;-60
2022/05/20 14:15:59;;;;;;;6.95;2.00;;;19.70;99.90;;;;;;7360096;32;20106;-59
2022/05/20 14:20:08;;;;;;;3.03;1.45;;;19.80;99.90;;;;;;7361344;32;20647;-63
2022/05/20 14:24:18;;;;;;;3.20;1.30;;;19.80;99.90;;;;;;7348161;32;20129;-65
2022/05/20 14:28:25;;;;;;;4.25;1.40;;;19.80;99.90;;;;;;7360326;32;20127;-66
2022/05/20 14:32:28;;;;;;;2.58;1.50;;;19.80;99.90;;;;;;7347748;32;20190;-65
2022/05/20 14:36:30;;;;;;;2.90;1.73;;;19.60;99.90;;;;;;7342026;32;20161;-65
2022/05/20 14:40:31;;;;;;;4.47;1.45;;;19.50;99.90;;;;;;7357731;32;20543;-65
2022/05/20 14:44:34;;;;;;;6.18;2.00;;;19.40;99.90;;;;;;7359819;32;20507;-65
2022/05/20 14:48:42;;;;;;;4.35;2.55;;;19.40;99.90;;;;;;7358085;32;20153;-65
2022/05/20 14:52:55;;;;;;;6.37;3.10;;;19.20;99.90;;;;;;7363221;32;20171;-64
2022/05/20 14:57:16;;;;;;;6.15;3.33;;;19.10;99.90;;;;;;7344027;32;20266;-65
2022/05/20 15:01:27;;;;;;;7.12;3.90;;;19.10;99.90;;;;;;7358166;32;20142;-65
2022/05/20 15:05:31;;;;;;;7.25;4.28;;;19.10;99.90;;;;;;7363331;32;20186;-65
2022/05/20 15:09:36;;;;;;;5.45;4.43;;;19.20;99.90;;;;;;7345207;32;20541;-65
2022/05/20 15:13:38;;;;;;;9.35;4.37;;;19.30;99.90;;;;;;7346137;32;20198;-64
2022/05/20 15:17:57;;;;;;;8.50;4.78;;;19.20;99.90;;;;;;7342377;32;20118;-66
2022/05/20 15:21:58;;;;;;;9.45;5.12;;;19.30;99.90;;;;;;7358930;32;20511;-64
2022/05/20 15:26:01;;;;;;;7.22;5.00;;;19.50;99.90;;;;;;7352911;32;20104;-67
2022/05/20 15:30:04;;;;;;;7.85;5.20;;;19.50;99.90;;;;;;7363250;32;20111;-65
2022/05/20 15:38:27;;;;;;;5.40;3.80;;;19.60;99.90;;;;;;7356158;32;20122;-65
2022/05/20 15:42:29;;;;;;;8.40;3.62;;;19.60;99.90;;;;;;7360387;32;20714;-64
2022/05/20 15:46:32;;;;;;;4.93;3.08;;;19.40;99.90;;;;;;7344851;32;20197;-64
2022/05/20 15:50:33;;;;;;;3.33;2.25;;;19.10;99.90;;;;;;7358737;32;20909;-68
2022/05/20 15:54:42;;;;;;;5.78;2.03;;;18.80;99.90;;;;;;7341297;32;20134;-65
2022/05/20 15:58:47;;;;;;;8.15;1.90;;;18.60;99.90;;;;;;7354162;32;20149;-66
2022/05/20 16:02:49;;;;;;;2.50;1.60;;;18.40;99.90;;;;;;7356168;32;20111;-64
2022/05/20 16:06:50;;;;;;;5.57;1.70;;;18.20;99.90;;;;;;7347178;32;20674;-67
2022/05/20 16:10:54;;;;;;;3.25;1.58;;;18.10;99.90;;;;;;7358957;32;20265;-65
2022/05/20 16:14:56;;;;;;;3.87;1.75;;;18.00;99.90;;;;;;7360102;32;20174;-66
2022/05/20 16:18:59;;;;;;;3.92;1.73;;;18.00;99.90;;;;;;7365027;32;20198;-66
2022/05/20 16:23:02;;;;;;;3.60;1.90;;;17.90;99.90;;;;;;7348788;32;20130;-64
2022/05/20 16:27:04;;;;;;;4.55;1.77;;;17.80;99.90;;;;;;7368331;32;20132;-66
2022/05/20 16:31:06;;;;;;;2.05;1.65;;;17.90;99.90;;;;;;7363013;32;20102;-66
2022/05/20 16:35:08;;;;;;;6.00;1.70;;;17.80;99.90;;;;;;7355405;32;20340;-65
2022/05/20 16:39:10;;;;;;;4.25;2.37;;;17.90;99.90;;;;;;7360879;32;20141;-67
2022/05/20 16:43:11;;;;;;;4.28;2.17;;;17.90;99.90;;;;;;7363437;32;20656;-65
2022/05/20 16:47:14;;;;;;;6.50;2.37;;;17.90;99.90;;;;;;7347709;32;20106;-65
2022/05/20 16:51:15;;;;;;;5.03;2.83;;;18.00;99.90;;;;;;7346265;32;20114;-65
2022/05/20 16:55:18;;;;;;;3.53;2.60;;;18.20;99.90;;;;;;7351615;32;20138;-65
2022/05/20 17:03:41;;;;;;;6.28;4.22;;;18.50;99.90;;;;;;7369964;32;20713;-64
2022/05/20 17:07:43;;;;;;;5.62;4.97;;;18.40;99.90;;;;;;7366671;32;20179;-65
2022/05/20 17:11:46;;;;;;;6.90;6.20;;;18.30;99.90;;;;;;7346886;32;20118;-66
2022/05/20 17:15:49;;;;;;;7.32;6.62;;;18.20;99.90;;;;;;7361132;32;20190;-66
2022/05/20 17:19:50;;;;;;;9.23;8.32;;;18.20;99.90;;;;;;7363419;32;20106;-67
2022/05/20 17:28:16;;;;;;;8.63;7.87;;;17.90;99.90;;;;;;7356800;32;20103;-65
2022/05/20 17:32:20;;;;;;;13.40;8.98;;;17.80;99.90;;;;;;7363303;32;20166;-66
2022/05/20 17:36:22;;;;;;;14.27;10.48;;;17.70;99.90;;;;;;7364185;32;20193;-68
2022/05/20 17:40:24;;;;;;;12.10;10.98;;;17.50;99.90;;;;;;7366511;32;20103;-67
2022/05/20 17:44:27;;;;;;;15.30;12.23;;;17.30;99.90;;;;;;7364961;32;20125;-66
2022/05/20 17:48:28;;;;;;;13.80;12.48;;;17.10;99.90;;;;;;7364504;32;20319;-67
2022/05/20 17:52:30;;;;;;;15.65;11.90;;;17.00;99.90;;;;;;7367286;32;20329;-67
2022/05/20 17:56:33;;;;;;;13.60;12.32;;;16.80;99.90;;;;;;7347875;32;20293;-66
2022/05/20 18:00:35;;;;;;;14.77;13.38;;;16.60;99.90;;;;;;7350962;32;20507;-67
2022/05/20 18:04:42;;;;;;;;;;;16.50;99.90;;;;;;7350978;32;20289;-68
2022/05/20 18:08:44;;;;;;;15.68;14.13;;;16.30;99.90;;;;;;7362866;32;20006;-68
2022/05/20 18:12:46;;;;;;;14.20;12.80;;;16.20;99.90;;;;;;7359829;32;20232;-67
2022/05/20 18:16:48;;;;;;;14.60;10.60;;;16.20;99.90;;;;;;7361778;32;20664;-67
2022/05/20 18:20:49;;;;;;;10.25;7.95;;;16.00;99.90;;;;;;7344878;32;20096;-67
2022/05/20 18:24:57;;;;;;;10.25;7.05;;;15.80;99.90;;;;;;7370033;32;20177;-67
2022/05/20 18:28:58;;;;;;;;;;;15.70;99.90;;;;;;7369994;32;20122;-67
2022/05/20 18:33:00;;;;;;;6.50;5.40;;;15.60;99.90;;;;;;7345212;32;20038;-67
2022/05/20 18:41:23;;;;;;;6.37;4.93;;;15.30;99.90;;;;;;7360399;32;20138;-68
2022/05/20 18:45:26;;;;;;;5.22;4.62;;;15.20;99.90;;;;;;7365389;32;20542;-67
2022/05/20 18:49:28;;;;;;;6.32;4.50;;;15.10;99.90;;;;;;7369952;32;20129;-66
2022/05/20 18:53:29;;;;;;;8.38;5.37;;;15.00;99.90;;;;;;7352503;32;20643;-69
2022/05/20 18:57:32;;;;;;;7.30;6.05;;;15.00;99.90;;;;;;7365425;32;20246;-66
2022/05/20 19:01:34;;;;;;;7.35;5.37;;;14.80;99.90;;;;;;7335425;32;20133;-69
2022/05/20 19:05:36;;;;;;;10.07;5.65;;;14.90;99.90;;;;;;7368945;32;20119;-68
2022/05/20 19:09:38;;;;;;;8.05;5.15;;;14.80;99.90;;;;;;7359965;32;20131;-66
2022/05/20 19:13:40;;;;;;;7.80;5.00;;;14.80;99.90;;;;;;7364240;32;20137;-67
2022/05/20 19:17:43;;;;;;;6.10;4.62;;;14.80;99.90;;;;;;7339101;32;20761;-67
2022/05/20 19:21:46;;;;;;;6.47;4.70;;;14.70;99.90;;;;;;7359013;32;20131;-67
2022/05/20 19:25:48;;;;;;;7.85;5.20;;;14.70;99.90;;;;;;7360315;32;20231;-66
2022/05/20 19:29:50;;;;;;;8.07;5.60;;;14.70;99.90;;;;;;7347558;32;20535;-67
2022/05/20 19:33:52;;;;;;;8.35;5.40;;;14.60;99.90;;;;;;7367553;32;20197;-67
2022/05/20 19:37:54;;;;;;;6.40;5.32;;;14.60;99.90;;;;;;7335562;32;20099;-66
2022/05/20 19:41:55;;;;;;;9.82;5.57;;;14.60;99.90;;;;;;7345672;32;20168;-65
2022/05/20 19:45:57;;;;;;;8.68;5.75;;;14.60;99.90;;;;;;7363239;32;20197;-66
2022/05/20 19:49:59;;;;;;;8.85;5.95;;;14.50;99.90;;;;;;7362167;32;20230;-65
2022/05/20 19:54:01;;;;;;;8.98;5.60;;;14.50;99.90;;;;;;7364724;32;20578;-65
2022/05/20 20:02:24;;;;;;;8.27;5.75;;;14.50;99.90;;;;;;7359432;32;20488;-65
2022/05/20 20:06:26;;;;;;;11.35;5.90;;;14.50;99.90;;;;;;7350719;32;20121;-64
2022/05/20 20:10:29;;;;;;;11.00;6.82;;;14.50;99.90;;;;;;7365141;32;20248;-65
2022/05/20 20:14:31;;;;;;;8.25;6.20;;;14.50;99.90;;;;;;7356565;32;20099;-66
2022/05/20 20:18:38;;;;;;;12.37;7.37;;;14.40;99.90;;;;;;7339757;32;20103;-64
2022/05/20 20:27:01;;;;;;;11.20;8.15;;;14.30;99.90;;;;;;7357216;32;20099;-64
2022/05/20 20:31:06;;;;;;;10.63;8.25;;;14.20;99.90;;;;;;7362560;32;20706;-65
2022/05/20 20:35:08;;;;;;;11.40;8.82;;;14.10;99.90;;;;;;7360695;32;20134;-64
2022/05/20 20:39:10;;;;;;;11.38;8.73;;;14.00;99.90;;;;;;7355117;32;20121;-62
2022/05/20 20:43:12;;;;;;;12.68;7.90;;;14.00;99.90;;;;;;7351366;32;20123;-64
2022/05/20 20:47:14;;;;;;;11.32;7.75;;;14.00;99.90;;;;;;7359904;32;20103;-66
2022/05/20 20:51:15;;;;;;;10.35;6.78;;;13.80;99.90;;;;;;7369591;32;20168;-66
2022/05/20 20:55:17;;;;;;;9.93;6.32;;;13.80;99.90;;;;;;7352192;32;20447;-64
2022/05/20 20:59:39;;;;;;;6.43;5.35;;;13.90;99.90;;;;;;7351239;32;20620;-65
2022/05/20 21:03:41;;;;;;;8.57;4.65;;;13.80;99.90;;;;;;7359920;32;20145;-64
2022/05/20 21:07:43;;;;;;;9.52;4.12;;;13.80;99.90;;;;;;7367037;32;20107;-64
2022/05/20 21:12:18;;;;;;;4.90;3.20;;;13.80;99.90;;;;;;7352939;32;20205;-65
2022/05/20 21:16:20;;;;;;;3.97;2.95;;;13.80;99.90;;;;;;7368002;32;20125;-66
2022/05/20 21:20:23;;;;;;;4.65;2.45;;;13.60;99.90;;;;;;7351312;32;20496;-66
2022/05/20 21:24:25;;;;;;;7.47;3.20;;;13.60;99.90;;;;;;7362194;32;20122;-66
2022/05/20 21:28:27;;;;;;;5.40;2.42;;;13.50;99.90;;;;;;7363315;32;20113;-65
2022/05/20 21:32:28;;;;;;;6.10;2.10;;;13.40;99.90;;;;;;7363099;32;20190;-66
2022/05/20 21:36:31;;;;;;;5.95;2.90;;;13.30;99.90;;;;;;7358878;32;20597;-66
2022/05/20 21:40:32;;;;;;;5.03;2.40;;;13.20;99.90;;;;;;7365389;32;20199;-63
2022/05/20 21:44:34;;;;;;;9.20;2.97;;;13.30;99.90;;;;;;7355699;32;20217;-62
2022/05/20 21:48:36;;;;;;;5.62;2.80;;;13.20;99.90;;;;;;7364728;32;20098;-61
2022/05/20 21:52:38;;;;;;;7.15;2.97;;;13.20;99.90;;;;;;7361808;32;20099;-62
2022/05/20 21:56:40;;;;;;;6.62;3.08;;;13.30;99.90;;;;;;7351089;32;20600;-63
2022/05/20 22:09:30;;;;;;;8.60;4.55;;;13.30;99.90;;;;;;7345810;32;20111;-62
2022/05/20 22:13:32;;;;;;;7.65;5.50;;;13.30;99.90;;;;;;7367694;32;20232;-63
2022/05/20 22:17:34;;;;;;;9.82;5.22;;;13.20;99.90;;;;;;7369435;32;20111;-63
2022/05/20 22:21:37;;;;;;;7.93;5.70;;;13.30;99.90;;;;;;7348893;32;20126;-63